logo
Rechercher aéroport 
image banner adimage banner adimage banner ad
image banner ad

FAGR - Graaff-Reinet

Situé à Graaff-Reinet, South Africa

ICAO - FAGR, IATA -

Données fournies par Airmate  

Information générale

Coordonnées: S32°11'33" E24°32'25"
Élévation : 2606 feet MSL.
Variation magnétique : -26° East
Voir autres Aéroports à Eastern Cape

Données opérationnelles

Special qualification required
Heure actuelle UTC:
Heure actuelle locale:
Météo à : - ( 0 km )
METAR: YMLT 242038Z AUTO 21007KT 9999 // BKN036 01/01 Q1015 RF00.0/000.0
Voir NOTAMs / SUP AIP / TFR affectant cet aéroport [VIEW]
Fréquences de communication: [VIEW]

Pistes:

Identifiant RWYQFULongueur (ft)Largeur (ft)SurfaceLDA (ft)
0415°488471ASPH4921
22195°488471ASPH4921
15130°279283GRAS2802
33310°279283GRAS2802

Coordonnées de l'aéroport

Adresse: Graaff-Reinet South Africa

Vue satellite de FAGR